Skip to content
New issue

Have a question about this project? Sign up for a free GitHub account to open an issue and contact its maintainers and the community.

By clicking “Sign up for GitHub”, you agree to our terms of service and privacy statement. We’ll occasionally send you account related emails.

Already on GitHub? Sign in to your account

METAR parsing issues #441

Closed
albar965 opened this issue Jul 30, 2019 · 0 comments
Assignees
Labels
bug
Milestone

Comments

@albar965
Copy link
Owner

@albar965 albar965 commented Jul 30, 2019

Does not recognizes QNH

LOWL 061820Z AUTO 26008KT 9999 -RA //////CB FEW046 BKN110 20/16 Q1011 TEMPO SHRA
LFKJ 272030Z AUTO 08004KT 020V170 9999 SCT044/// SCT082/// BKN130/// ///CB 24/20 Q1000 TEMPO 2000 TSRA BKN010 BKN030CB
@albar965 albar965 added the bug label Jul 30, 2019
@albar965 albar965 added this to the Release 2.4 milestone Jul 30, 2019
@albar965 albar965 self-assigned this Jul 30, 2019
albar965 added a commit to albar965/atoolstest that referenced this issue Aug 6, 2019
albar965 added a commit that referenced this issue Aug 6, 2019
albar965 added a commit to albar965/atoolstest that referenced this issue Aug 6, 2019
albar965 added a commit to albar965/atoolstest that referenced this issue Aug 6, 2019
albar965 added a commit to albar965/atoolstest that referenced this issue Aug 6, 2019
albar965 added a commit to albar965/atoolstest that referenced this issue Aug 6, 2019
Sign up for free to join this conversation on GitHub. Already have an account? Sign in to comment
Projects
None yet
1 participant
You can’t perform that action at this time.